Time;durP1;ratioP1;P1;durP2;ratioP2;P2;SDS_P1;SDS_P2;PMS_P1;PMS_P2;Temp;Humidity;BMP_temperature;BMP_pressure;BME280_temperature;BME280_humidity;BME280_pressure;Samples;Min_cycle;Max_cycle;Signal;HPM_P1;HPM_P2
2021/06/24 00:02:14;;;;;;;17.92;7.22;;;;;;;24.34;100.00;100709.52;1739743;80;20928;-45
2021/06/24 00:04:40;;;;;;;23.18;7.70;;;;;;;24.31;100.00;100708.99;1717381;82;20991;-46
2021/06/24 00:07:09;;;;;;;21.02;7.03;;;;;;;24.26;100.00;100709.51;1735862;80;20958;-46
2021/06/24 00:09:36;;;;;;;25.12;8.30;;;;;;;24.22;100.00;100704.58;1733849;80;20979;-44
2021/06/24 00:12:03;;;;;;;20.12;6.92;;;;;;;24.17;100.00;100710.05;1733747;82;21209;-44
2021/06/24 00:14:30;;;;;;;34.48;7.80;;;;;;;24.17;100.00;100707.84;1736678;80;21027;-43
2021/06/24 00:16:56;;;;;;;21.30;6.42;;;;;;;24.18;100.00;100709.53;1739931;80;21019;-44
2021/06/24 00:19:23;;;;;;;23.83;8.53;;;;;;;24.17;100.00;100702.40;1741203;80;20948;-43
2021/06/24 00:21:49;;;;;;;22.07;7.70;;;;;;;24.15;100.00;100701.20;1737490;82;21463;-43
2021/06/24 00:24:16;;;;;;;17.62;6.97;;;;;;;24.13;100.00;100700.52;1733225;82;20958;-43
2021/06/24 00:26:43;;;;;;;32.23;18.70;;;;;;;24.13;100.00;100701.87;1739344;82;21000;-46
2021/06/24 00:29:09;;;;;;;27.50;14.55;;;;;;;24.14;100.00;100691.83;1738505;80;21495;-44
2021/06/24 00:31:36;;;;;;;26.87;9.60;;;;;;;24.11;100.00;100693.54;1738213;80;20956;-49
2021/06/24 00:34:02;;;;;;;16.67;7.80;;;;;;;24.08;100.00;100687.92;1715510;82;21291;-47
2021/06/24 00:36:29;;;;;;;23.45;7.72;;;;;;;24.05;100.00;100691.00;1737796;80;20992;-47
2021/06/24 00:38:56;;;;;;;21.50;7.45;;;;;;;24.04;100.00;100687.08;1744396;82;20947;-45
2021/06/24 00:41:23;;;;;;;19.95;7.75;;;;;;;24.06;100.00;100691.84;1737979;80;20924;-48
2021/06/24 00:43:51;;;;;;;17.32;6.70;;;;;;;24.07;100.00;100686.23;1739888;82;20967;-44
2021/06/24 00:46:17;;;;;;;25.48;8.88;;;;;;;24.06;100.00;100688.60;1711562;82;20963;-44
2021/06/24 00:48:44;;;;;;;19.65;6.78;;;;;;;24.03;100.00;100687.59;1702419;82;20987;-43
2021/06/24 00:51:11;;;;;;;29.25;9.25;;;;;;;24.00;100.00;100688.46;1711760;82;21002;-46
2021/06/24 00:53:38;;;;;;;25.32;9.48;;;;;;;23.95;100.00;100688.97;1746289;80;20947;-44
2021/06/24 00:56:05;;;;;;;21.75;7.28;;;;;;;23.88;100.00;100688.80;1742589;80;21491;-43
2021/06/24 00:58:32;;;;;;;21.50;7.92;;;;;;;23.84;100.00;100690.67;1745390;81;21502;-47
2021/06/24 01:00:59;;;;;;;15.83;7.58;;;;;;;23.80;100.00;100695.62;1675677;84;20951;-44
2021/06/24 01:03:27;;;;;;;36.15;8.03;;;;;;;23.75;100.00;100700.20;1737918;80;20996;-44
2021/06/24 01:05:55;;;;;;;25.95;10.00;;;;;;;23.72;100.00;100706.00;1747787;80;20972;-44
2021/06/24 01:08:29;;;;;;;24.40;7.87;;;;;;;23.68;100.00;100705.11;1745840;80;20971;-44
2021/06/24 01:10:55;;;;;;;19.02;7.33;;;;;;;23.62;100.00;100713.45;1742760;80;21009;-43
2021/06/24 01:13:23;;;;;;;17.62;6.90;;;;;;;23.60;100.00;100713.28;1713781;82;21007;-45
2021/06/24 01:15:50;;;;;;;19.42;8.08;;;;;;;23.58;100.00;100703.91;1741732;80;20996;-45
2021/06/24 01:18:17;;;;;;;16.48;7.53;;;;;;;23.59;100.00;100701.55;1741162;82;21011;-44
2021/06/24 01:20:44;;;;;;;18.42;7.20;;;;;;;23.62;100.00;100693.55;1740093;82;21305;-44
2021/06/24 01:23:12;;;;;;;20.70;8.20;;;;;;;23.62;100.00;100699.84;1746545;80;20960;-45
2021/06/24 01:25:39;;;;;;;17.77;6.95;;;;;;;23.63;100.00;100702.05;1741025;82;21478;-44
2021/06/24 01:28:08;;;;;;;23.95;6.70;;;;;;;23.64;100.00;100714.13;1740002;82;20940;-44
2021/06/24 01:30:38;;;;;;;21.27;7.65;;;;;;;23.61;100.00;100707.67;1738788;80;20944;-44
2021/06/24 01:33:06;;;;;;;22.05;8.50;;;;;;;23.61;100.00;100708.16;1738986;82;20976;-44
2021/06/24 01:35:32;;;;;;;20.20;7.80;;;;;;;23.61;100.00;100708.16;1740942;81;20980;-43
2021/06/24 01:38:06;;;;;;;23.57;8.70;;;;;;;23.58;100.00;100705.78;1743871;80;21439;-43
2021/06/24 01:40:33;;;;;;;20.68;7.30;;;;;;;23.55;100.00;100702.38;1740459;80;20912;-42
2021/06/24 01:43:00;;;;;;;21.97;7.10;;;;;;;23.55;100.00;100706.97;1749243;80;20983;-46
2021/06/24 01:45:28;;;;;;;28.42;7.85;;;;;;;23.56;100.00;100712.74;1717263;82;21695;-43
2021/06/24 01:47:55;;;;;;;24.65;10.45;;;;;;;23.55;100.00;100715.13;1736525;80;20999;-43
2021/06/24 01:50:22;;;;;;;23.47;10.00;;;;;;;23.53;100.00;100718.02;1739070;82;20928;-44
2021/06/24 01:52:50;;;;;;;21.07;8.40;;;;;;;23.51;100.00;100721.44;1716239;82;20964;-44
2021/06/24 01:55:31;;;;;;;21.37;8.45;;;;;;;23.50;100.00;100714.27;1735220;80;20987;-44
2021/06/24 01:57:48;;;;;;;19.98;8.63;;;;;;;23.48;100.00;100718.19;1723920;81;20957;-43
2021/06/24 02:00:18;;;;;;;14.43;6.55;;;;;;;23.48;100.00;100719.55;1719129;81;21412;-43
2021/06/24 02:02:44;;;;;;;18.87;6.72;;;;;;;23.45;100.00;100725.33;1722901;81;21002;-44
2021/06/24 02:05:13;;;;;;;21.12;9.23;;;;;;;23.40;100.00;100716.30;1665580;83;21504;-44
2021/06/24 02:07:42;;;;;;;23.45;8.80;;;;;;;23.36;100.00;100720.88;1669929;84;21001;-44
2021/06/24 02:10:27;;;;;;;18.57;7.53;;;;;;;23.30;100.00;100716.97;1669002;85;21309;-43
2021/06/24 02:12:56;;;;;;;20.43;8.23;;;;;;;23.27;100.00;100722.75;1665396;83;21044;-43
2021/06/24 02:15:25;;;;;;;25.65;8.33;;;;;;;23.28;100.00;100719.00;1658010;83;20968;-42
2021/06/24 02:17:53;;;;;;;18.75;6.72;;;;;;;23.29;100.00;100716.64;1669692;84;21027;-43
2021/06/24 02:20:21;;;;;;;18.32;7.35;;;;;;;23.30;100.00;100719.69;1728341;81;20980;-43
2021/06/24 02:22:52;;;;;;;18.55;6.45;;;;;;;23.30;100.00;100720.53;1723287;81;20996;-43
2021/06/24 02:25:21;;;;;;;13.50;5.45;;;;;;;23.31;100.00;100711.89;1724778;81;20968;-41
2021/06/24 02:27:55;;;;;;;12.03;5.80;;;;;;;23.31;100.00;100711.37;1725218;81;20984;-42
2021/06/24 02:30:30;;;;;;;10.10;4.90;;;;;;;23.29;100.00;100707.12;1680026;84;21020;-43
2021/06/24 02:32:58;;;;;;;10.30;6.37;;;;;;;23.27;100.00;100708.63;1684313;83;21000;-44
2021/06/24 02:35:25;;;;;;;11.57;5.22;;;;;;;23.28;100.00;100702.19;1655109;83;21371;-43
2021/06/24 02:37:55;;;;;;;13.50;5.20;;;;;;;23.28;100.00;100708.99;1689959;83;20986;-44
2021/06/24 02:40:26;;;;;;;10.50;5.37;;;;;;;23.27;100.00;100708.63;1687876;84;21043;-41
2021/06/24 02:42:54;;;;;;;11.03;5.33;;;;;;;23.26;100.00;100704.73;1693524;83;20960;-41
2021/06/24 02:45:22;;;;;;;19.48;10.08;;;;;;;23.26;100.00;100712.90;1686141;84;21025;-43
2021/06/24 02:47:49;;;;;;;18.92;11.18;;;;;;;23.27;100.00;100711.86;1689556;83;21023;-44
2021/06/24 02:50:17;;;;;;;22.13;9.10;;;;;;;23.25;100.00;100716.10;1691380;84;21007;-43
2021/06/24 02:52:45;;;;;;;26.48;8.55;;;;;;;23.21;100.00;100712.03;1658895;84;21495;-43
2021/06/24 02:55:12;;;;;;;17.85;6.70;;;;;;;23.11;100.00;100709.45;1689544;84;20944;-41
2021/06/24 02:57:41;;;;;;;24.27;8.55;;;;;;;23.06;100.00;100714.54;1685076;83;21011;-42
2021/06/24 03:00:22;;;;;;;27.85;8.10;;;;;;;23.03;100.00;100720.80;1686328;83;21048;-42
2021/06/24 03:02:51;;;;;;;22.30;7.40;;;;;;;23.03;100.00;100724.87;1681120;84;20992;-42
2021/06/24 03:05:20;;;;;;;28.42;7.55;;;;;;;23.02;100.00;100728.63;1690021;83;21041;-42
2021/06/24 03:07:49;;;;;;;26.85;8.58;;;;;;;23.02;100.00;100730.83;1689666;84;21476;-43
2021/06/24 03:10:32;;;;;;;23.18;8.95;;;;;;;23.01;100.00;100731.86;1659581;86;21078;-43
2021/06/24 03:12:59;;;;;;;23.83;9.20;;;;;;;23.03;100.00;100731.67;1637138;86;21982;-43
2021/06/24 03:15:31;;;;;;;26.75;10.00;;;;;;;23.05;100.00;100731.00;1696726;83;20943;-43
2021/06/24 03:17:56;;;;;;;29.32;10.70;;;;;;;23.07;100.00;100732.55;1638223;86;21089;-43
2021/06/24 03:20:28;;;;;;;39.95;10.15;;;;;;;23.10;100.00;100735.44;1697724;82;20974;-44
2021/06/24 03:22:56;;;;;;;27.93;9.48;;;;;;;23.14;100.00;100723.23;1703833;83;21014;-43
2021/06/24 03:25:21;;;;;;;27.93;8.75;;;;;;;23.18;100.00;100723.22;1660655;83;21538;-43
2021/06/24 03:27:50;;;;;;;24.92;10.15;;;;;;;23.21;100.00;100718.83;1702125;83;20984;-43
2021/06/24 03:30:27;;;;;;;25.90;9.15;;;;;;;23.25;100.00;100717.46;1615809;87;21007;-41
2021/06/24 03:32:55;;;;;;;32.42;9.48;;;;;;;23.28;100.00;100712.20;1612398;87;21007;-42
2021/06/24 03:35:21;;;;;;;27.42;10.43;;;;;;;23.27;100.00;100714.07;1615913;87;21064;-43
2021/06/24 03:37:48;;;;;;;39.73;11.55;;;;;;;23.27;100.00;100715.43;1607961;87;20987;-42
2021/06/24 03:40:18;;;;;;;27.02;9.25;;;;;;;23.28;100.00;100713.55;1611241;87;20983;-41
2021/06/24 03:42:45;;;;;;;35.78;10.65;;;;;;;23.29;100.00;100713.92;1612850;87;21092;-42
2021/06/24 03:45:13;;;;;;;39.27;10.25;;;;;;;23.30;100.00;100713.73;1618343;86;20999;-42
2021/06/24 03:47:41;;;;;;;33.25;9.18;;;;;;;23.32;100.00;100711.70;1644482;86;21673;-42
2021/06/24 03:50:10;;;;;;;32.30;9.70;;;;;;;23.34;100.00;100707.47;1613111;86;21931;-43
2021/06/24 03:52:37;;;;;;;34.95;11.73;;;;;;;23.33;100.00;100705.75;1644518;86;21450;-42
2021/06/24 03:55:06;;;;;;;33.35;11.55;;;;;;;23.34;100.00;100710.19;1641450;86;21002;-43
2021/06/24 03:57:33;;;;;;;30.48;10.85;;;;;;;23.36;100.00;100707.28;1618808;86;20997;-42
2021/06/24 04:00:01;;;;;;;29.45;10.08;;;;;;;23.39;100.00;100706.45;1639179;86;21029;-42
2021/06/24 04:02:29;;;;;;;28.10;9.78;;;;;;;23.40;100.00;100708.14;1635975;86;21035;-40
2021/06/24 04:04:56;;;;;;;30.75;10.75;;;;;;;23.40;100.00;100704.58;1635946;86;21501;-40
2021/06/24 04:07:24;;;;;;;38.30;9.60;;;;;;;23.40;100.00;100709.50;1695747;80;21509;-40
2021/06/24 04:09:51;;;;;;;30.72;9.70;;;;;;;23.44;100.00;100702.72;1736628;81;21288;-40
2021/06/24 04:12:17;;;;;;;28.42;9.08;;;;;;;23.48;100.00;100709.50;1726275;81;20999;-40
2021/06/24 04:14:46;;;;;;;33.53;11.38;;;;;;;23.53;100.00;100715.30;1734413;80;21483;-42
2021/06/24 04:17:16;;;;;;;32.93;10.20;;;;;;;23.55;100.00;100710.54;1736333;80;21799;-43
2021/06/24 04:19:43;;;;;;;43.78;10.82;;;;;;;23.59;100.00;100717.88;1738782;80;20935;-42
2021/06/24 04:22:10;;;;;;;32.15;10.55;;;;;;;23.63;100.00;100714.30;1737584;80;20960;-43
2021/06/24 04:24:38;;;;;;;28.47;10.05;;;;;;;23.67;100.00;100710.22;1727263;82;21570;-43
2021/06/24 04:27:08;;;;;;;27.87;8.88;;;;;;;23.72;100.00;100716.00;1731356;82;21035;-42
2021/06/24 04:29:36;;;;;;;28.92;8.73;;;;;;;23.75;100.00;100715.17;1738077;80;20958;-41
2021/06/24 04:32:04;;;;;;;34.30;10.18;;;;;;;23.80;100.00;100721.48;1730028;82;21007;-41
2021/06/24 04:34:31;;;;;;;27.82;9.18;;;;;;;23.86;100.00;100718.06;1732863;82;20980;-42
2021/06/24 04:37:00;;;;;;;34.70;10.65;;;;;;;23.89;100.00;100716.87;1731894;81;20953;-44
2021/06/24 04:39:29;;;;;;;31.82;10.18;;;;;;;23.93;100.00;100716.36;1733216;80;20952;-52
2021/06/24 04:41:55;;;;;;;33.65;9.53;;;;;;;23.97;100.00;100706.00;1733064;81;20952;-44
2021/06/24 04:44:22;;;;;;;32.70;10.32;;;;;;;24.01;100.00;100707.84;1734211;80;20947;-40
2021/06/24 04:46:49;;;;;;;32.80;9.98;;;;;;;24.05;100.00;100703.77;1705160;82;21487;-41
2021/06/24 04:49:17;;;;;;;32.70;10.25;;;;;;;24.08;100.00;100693.89;1728933;81;20972;-41
2021/06/24 04:51:46;;;;;;;;;;;;;;;24.11;100.00;100694.90;1734598;82;21352;-40
2021/06/24 04:54:15;;;;;;;33.95;10.08;;;;;;;24.13;100.00;100697.79;1724531;80;20144;-39
2021/06/24 04:56:43;;;;;;;33.85;10.63;;;;;;;24.17;100.00;100695.59;1727583;80;21459;-41
2021/06/24 04:59:10;;;;;;;32.50;9.68;;;;;;;24.22;100.00;100702.73;1708971;82;20968;-42
2021/06/24 05:01:40;;;;;;;31.70;11.08;;;;;;;24.27;100.00;100692.16;1719158;82;21425;-42
2021/06/24 05:04:26;;;;;;;37.95;10.63;;;;;;;24.33;100.00;100681.07;1688625;83;21502;-41
2021/06/24 05:06:55;;;;;;;24.63;7.90;;;;;;;24.39;100.00;100682.59;1689510;83;21006;-41
2021/06/24 05:09:27;;;;;;;30.00;9.18;;;;;;;24.45;100.00;100676.98;1683791;83;21015;-40
2021/06/24 05:11:50;;;;;;;30.48;9.60;;;;;;;24.52;100.00;100678.47;1686983;83;21483;-40
2021/06/24 05:14:17;;;;;;;35.95;8.45;;;;;;;24.58;100.00;100675.06;1689260;83;21477;-43
2021/06/24 05:16:43;;;;;;;22.30;8.10;;;;;;;24.65;100.00;100669.77;1685289;83;21104;-42
2021/06/24 05:19:10;;;;;;;23.70;8.88;;;;;;;24.71;100.00;100668.52;1680021;84;20938;-41
2021/06/24 05:21:38;;;;;;;24.02;8.23;;;;;;;24.78;100.00;100670.03;1687890;83;20993;-46
2021/06/24 05:24:06;;;;;;;30.45;8.98;;;;;;;24.87;100.00;100670.83;1688174;83;21026;-43
2021/06/24 05:26:33;;;;;;;24.80;8.80;;;;;;;24.95;100.00;100677.11;1666699;83;21010;-43
2021/06/24 05:29:00;;;;;;;23.95;7.10;;;;;;;25.02;100.00;100680.82;1688186;83;21454;-42
2021/06/24 05:31:27;;;;;;;31.12;6.62;;;;;;;25.11;100.00;100680.77;1685776;83;20959;-42
2021/06/24 05:33:53;;;;;;;19.40;7.83;;;;;;;25.17;100.00;100679.55;1687096;83;21012;-43
2021/06/24 05:36:20;;;;;;;27.10;7.17;;;;;;;25.25;99.13;100682.77;1722321;81;20999;-42
2021/06/24 05:38:47;;;;;;;28.07;8.33;;;;;;;25.31;98.74;100680.66;1724382;81;20983;-43
2021/06/24 05:41:13;;;;;;;15.70;7.12;;;;;;;25.38;99.60;100684.37;1728002;81;21460;-42
2021/06/24 05:43:40;;;;;;;26.57;7.42;;;;;;;25.44;96.46;100682.78;1724187;81;21011;-38
2021/06/24 05:46:07;;;;;;;22.93;7.78;;;;;;;25.51;93.19;100682.39;1724336;81;20969;-40
2021/06/24 05:48:33;;;;;;;21.73;7.83;;;;;;;25.58;94.28;100684.73;1715667;82;20991;-42
2021/06/24 05:51:00;;;;;;;21.57;8.08;;;;;;;25.65;93.56;100686.20;1718804;81;21439;-44
2021/06/24 05:53:28;;;;;;;24.47;6.90;;;;;;;25.72;94.34;100690.42;1730816;81;20960;-43
2021/06/24 05:55:55;;;;;;;30.52;9.48;;;;;;;25.77;93.43;100687.98;1717788;82;21551;-43
2021/06/24 05:58:24;;;;;;;25.37;8.43;;;;;;;25.85;92.15;100686.05;1722957;81;21011;-42
2021/06/24 06:00:54;;;;;;;22.90;6.58;;;;;;;25.93;88.77;100683.79;1727737;81;20980;-43
2021/06/24 06:03:22;;;;;;;21.65;6.80;;;;;;;26.02;87.01;100680.45;1721277;81;21012;-43
2021/06/24 06:05:49;;;;;;;23.75;7.35;;;;;;;26.08;87.91;100680.56;1690493;83;21636;-43
2021/06/24 06:08:17;;;;;;;17.32;5.92;;;;;;;26.14;88.46;100679.48;1685973;83;21015;-42
2021/06/24 06:10:44;;;;;;;17.73;6.12;;;;;;;26.17;88.78;100681.31;1684740;83;21011;-44
2021/06/24 06:13:11;;;;;;;23.25;7.28;;;;;;;26.20;89.68;100679.56;1689444;83;20972;-42
2021/06/24 06:15:40;;;;;;;20.72;6.03;;;;;;;26.21;89.83;100677.70;1679937;83;20979;-44
2021/06/24 06:18:14;;;;;;;20.23;7.20;;;;;;;26.24;90.75;100678.16;1685598;84;21031;-42
2021/06/24 06:20:42;;;;;;;24.65;6.60;;;;;;;26.27;89.92;100679.67;1690162;83;21265;-40
2021/06/24 06:23:08;;;;;;;20.43;6.83;;;;;;;26.29;90.86;100679.81;1688737;83;20987;-43
2021/06/24 06:25:35;;;;;;;24.05;7.17;;;;;;;26.32;90.99;100679.44;1732036;81;20937;-43
2021/06/24 06:28:02;;;;;;;17.48;5.65;;;;;;;26.36;93.07;100678.56;1723742;81;20937;-41
2021/06/24 06:30:28;;;;;;;23.90;6.85;;;;;;;26.38;90.95;100673.73;1724377;81;20980;-42
2021/06/24 06:32:55;;;;;;;19.23;7.85;;;;;;;26.42;91.61;100676.42;1725845;81;21004;-42
2021/06/24 06:35:22;;;;;;;30.17;8.05;;;;;;;26.45;91.00;100671.94;1723254;81;20922;-44
2021/06/24 06:37:48;;;;;;;21.85;7.05;;;;;;;26.48;90.25;100670.19;1722009;81;20992;-43
2021/06/24 06:40:15;;;;;;;23.35;7.05;;;;;;;26.52;90.35;100667.95;1726024;81;20972;-43
2021/06/24 06:42:42;;;;;;;23.80;6.97;;;;;;;26.57;88.85;100667.41;1725558;81;20992;-45
2021/06/24 06:45:11;;;;;;;20.95;6.42;;;;;;;26.62;90.07;100674.00;1724296;81;20956;-45
2021/06/24 06:47:38;;;;;;;20.72;5.67;;;;;;;26.71;87.17;100669.26;1723978;81;20952;-43
2021/06/24 06:50:05;;;;;;;26.68;6.42;;;;;;;26.80;87.07;100669.49;1723394;81;20971;-48
2021/06/24 06:52:32;;;;;;;29.37;8.30;;;;;;;26.90;84.30;100669.20;1726741;81;20925;-46
2021/06/24 06:54:59;;;;;;;20.88;5.90;;;;;;;26.98;83.50;100664.97;1723232;81;20937;-44
2021/06/24 06:57:26;;;;;;;24.45;6.90;;;;;;;27.08;81.03;100662.77;1722903;81;20992;-43
2021/06/24 06:59:52;;;;;;;17.80;6.78;;;;;;;27.18;80.30;100663.86;1727691;81;20935;-41
2021/06/24 07:02:19;;;;;;;15.35;5.70;;;;;;;27.26;82.11;100659.62;1721430;81;20964;-43
2021/06/24 07:04:46;;;;;;;25.02;6.65;;;;;;;27.32;83.00;100658.86;1728866;81;21420;-43
2021/06/24 07:07:12;;;;;;;22.60;6.53;;;;;;;27.38;82.88;100655.33;1721514;81;20929;-43
2021/06/24 07:09:41;;;;;;;20.95;6.47;;;;;;;27.46;81.95;100650.77;1718862;81;20941;-43
2021/06/24 07:12:09;;;;;;;17.45;5.70;;;;;;;27.53;82.26;100653.89;1729313;81;21008;-42
2021/06/24 07:14:35;;;;;;;17.60;4.87;;;;;;;27.59;80.61;100644.04;1727416;81;20917;-41
2021/06/24 07:17:02;;;;;;;20.52;6.37;;;;;;;27.62;80.10;100645.88;1722857;82;22141;-43
2021/06/24 07:19:29;;;;;;;21.62;5.80;;;;;;;27.68;79.30;100646.97;1726212;81;21469;-42
2021/06/24 07:21:56;;;;;;;23.80;5.45;;;;;;;27.72;76.25;100641.44;1722609;81;20991;-41
2021/06/24 07:24:23;;;;;;;25.17;7.97;;;;;;;27.74;76.46;100640.69;1722569;81;21526;-42
2021/06/24 07:26:49;;;;;;;14.45;4.85;;;;;;;27.77;73.83;100638.08;1721464;81;21025;-41
2021/06/24 07:29:16;;;;;;;19.02;6.85;;;;;;;27.81;74.38;100639.38;1723766;81;21366;-42
2021/06/24 07:31:43;;;;;;;17.10;4.58;;;;;;;27.86;77.44;100642.41;1719122;81;21327;-41
2021/06/24 07:34:09;;;;;;;18.32;6.53;;;;;;;27.92;79.12;100647.10;1721057;81;20940;-40
2021/06/24 07:36:36;;;;;;;14.38;4.78;;;;;;;28.00;77.59;100650.22;1729696;81;20990;-41
2021/06/24 07:39:03;;;;;;;16.42;6.78;;;;;;;28.05;76.78;100651.83;1731398;81;20897;-44
2021/06/24 07:41:30;;;;;;;20.17;5.50;;;;;;;28.11;73.69;100652.91;1723861;81;20956;-43
2021/06/24 07:43:58;;;;;;;19.12;5.83;;;;;;;28.16;73.72;100654.00;1726452;81;20928;-41
2021/06/24 07:46:25;;;;;;;13.80;4.55;;;;;;;28.20;74.32;100656.67;1718944;81;21020;-43
2021/06/24 07:48:51;;;;;;;13.45;5.03;;;;;;;28.24;75.20;100660.68;1715084;81;20941;-42
2021/06/24 07:51:18;;;;;;;19.40;4.47;;;;;;;28.26;75.43;100665.45;1714784;82;20984;-44
2021/06/24 07:53:45;;;;;;;14.38;4.30;;;;;;;28.28;75.44;100661.67;1723823;81;20972;-42
2021/06/24 07:56:12;;;;;;;14.53;3.90;;;;;;;28.29;72.47;100664.20;1720568;81;20929;-43
2021/06/24 07:58:39;;;;;;;29.52;7.47;;;;;;;28.30;70.92;100663.16;1725052;81;20992;-42
2021/06/24 08:01:06;;;;;;;18.52;5.00;;;;;;;28.33;71.60;100668.77;1738293;80;20920;-45
2021/06/24 08:03:34;;;;;;;15.72;4.50;;;;;;;28.34;71.96;100660.86;1735892;82;21393;-45
2021/06/24 08:06:02;;;;;;;22.58;6.00;;;;;;;28.36;72.59;100660.97;1736242;80;21426;-42
2021/06/24 08:08:29;;;;;;;17.77;5.17;;;;;;;28.38;72.27;100662.16;1738184;80;20924;-42
2021/06/24 08:10:56;;;;;;;19.65;6.05;;;;;;;28.42;74.09;100663.42;1739602;80;20959;-43
2021/06/24 08:13:25;;;;;;;14.87;4.85;;;;;;;28.49;75.07;100665.72;1733426;80;20932;-45
2021/06/24 08:15:52;;;;;;;14.03;5.20;;;;;;;28.55;75.04;100666.30;1732048;80;20951;-42
2021/06/24 08:18:19;;;;;;;18.50;5.55;;;;;;;28.60;74.23;100667.03;1738165;80;21074;-42
2021/06/24 08:20:47;;;;;;;14.87;5.30;;;;;;;28.64;71.94;100669.16;1734454;82;21478;-44
2021/06/24 08:23:16;;;;;;;14.68;5.22;;;;;;;28.71;70.76;100662.34;1737502;80;20912;-45
2021/06/24 08:25:43;;;;;;;13.98;4.97;;;;;;;28.77;72.47;100661.52;1740542;80;20912;-44
2021/06/24 08:28:11;;;;;;;19.37;4.92;;;;;;;28.83;73.83;100671.69;1745802;82;20943;-45
2021/06/24 08:30:42;;;;;;;18.73;5.25;;;;;;;28.88;72.09;100673.29;1739679;80;20956;-44
2021/06/24 08:33:07;;;;;;;24.10;5.40;;;;;;;28.97;72.77;100675.31;1734309;82;21008;-44
2021/06/24 08:35:33;;;;;;;17.85;4.65;;;;;;;29.03;71.27;100668.14;1735138;80;20940;-44
2021/06/24 08:38:00;;;;;;;22.95;6.87;;;;;;;29.08;70.03;100669.28;1736758;80;21459;-44
2021/06/24 08:40:27;;;;;;;16.20;6.90;;;;;;;29.11;68.51;100659.78;1743996;80;20999;-45
2021/06/24 08:42:54;;;;;;;13.78;4.28;;;;;;;29.15;67.49;100662.94;1747543;82;20943;-42
2021/06/24 08:45:21;;;;;;;15.72;5.95;;;;;;;29.17;69.22;100662.22;1739740;82;20972;-43
2021/06/24 08:47:48;;;;;;;13.13;4.37;;;;;;;29.20;70.13;100667.28;1737359;82;20973;-43
2021/06/24 08:50:16;;;;;;;18.55;5.20;;;;;;;29.19;67.97;100660.95;1741163;80;20979;-42
2021/06/24 08:52:49;;;;;;;18.92;4.65;;;;;;;29.23;68.12;100665.48;1735141;82;21000;-43
2021/06/24 08:55:17;;;;;;;12.65;4.55;;;;;;;29.23;67.93;100664.98;1737362;82;20944;-43
2021/06/24 08:57:44;;;;;;;19.20;5.12;;;;;;;29.26;64.52;100667.84;1736210;80;21008;-44
2021/06/24 09:00:12;;;;;;;13.15;4.33;;;;;;;29.27;62.41;100673.64;1729956;81;20972;-42
2021/06/24 09:02:54;;;;;;;15.20;5.45;;;;;;;29.30;66.64;100663.61;1729418;81;20944;-44
2021/06/24 09:05:15;;;;;;;10.68;4.12;;;;;;;29.31;66.60;100668.91;1723036;82;21533;-43
2021/06/24 09:07:49;;;;;;;12.30;4.92;;;;;;;29.35;64.89;100667.95;1728707;81;20956;-45
2021/06/24 09:10:18;;;;;;;18.23;5.12;;;;;;;29.38;66.01;100662.03;1728202;81;20945;-46
2021/06/24 09:12:59;;;;;;;16.75;5.53;;;;;;;29.42;67.35;100666.59;1721072;81;20981;-45
2021/06/24 09:15:37;;;;;;;22.62;5.50;;;;;;;29.45;67.82;100661.52;1724796;81;21610;-43
2021/06/24 09:18:23;;;;;;;15.32;6.17;;;;;;;29.49;66.92;100662.80;1726853;81;21104;-43
2021/06/24 09:20:49;;;;;;;18.85;4.53;;;;;;;29.55;68.21;100667.44;1722950;81;21028;-46
2021/06/24 09:23:22;;;;;;;14.45;4.92;;;;;;;29.63;67.02;100661.43;1727420;82;20937;-43
2021/06/24 09:26:12;;;;;;;10.15;4.15;;;;;;;29.68;66.79;100651.52;1699665;83;20999;-41
2021/06/24 09:28:45;;;;;;;17.80;4.62;;;;;;;29.75;66.33;100652.91;1662221;84;20992;-45
2021/06/24 09:31:28;;;;;;;20.10;5.62;;;;;;;29.82;68.85;100649.64;1683689;84;21033;-43
2021/06/24 09:33:56;;;;;;;19.48;5.22;;;;;;;29.90;69.43;100645.83;1684911;83;21012;-45
2021/06/24 09:36:39;;;;;;;;;;;;;;;29.98;67.44;100645.59;1691158;83;21467;-47
2021/06/24 09:39:13;;;;;;;18.02;4.97;;;;;;;30.05;67.55;100640.94;1687425;83;20134;-40
2021/06/24 09:42:01;;;;;;;16.57;6.25;;;;;;;30.13;66.56;100643.98;1687634;83;20988;-44
2021/06/24 09:44:29;;;;;;;13.83;4.45;;;;;;;30.20;64.16;100643.45;1684712;84;20958;-48
2021/06/24 09:46:56;;;;;;;13.30;4.90;;;;;;;30.26;63.69;100637.11;1684904;84;20988;-48
2021/06/24 09:49:29;;;;;;;13.22;4.95;;;;;;;30.32;65.35;100629.39;1688628;84;20968;-40
2021/06/24 09:51:57;;;;;;;12.13;4.75;;;;;;;30.38;66.61;100634.02;1685678;83;20975;-46
2021/06/24 09:54:39;;;;;;;14.47;3.72;;;;;;;30.42;65.95;100630.32;1731447;81;21462;-46
2021/06/24 09:57:07;;;;;;;10.00;4.50;;;;;;;30.45;64.72;100631.79;1734959;81;21332;-42
2021/06/24 09:59:39;;;;;;;9.38;3.67;;;;;;;30.45;60.73;100632.63;1727452;81;21491;-44
2021/06/24 10:02:13;;;;;;;15.60;3.27;;;;;;;30.51;55.76;100629.53;1734799;81;20925;-46
2021/06/24 10:04:45;;;;;;;13.18;3.20;;;;;;;30.58;56.48;100631.20;1732328;82;21400;-45
2021/06/24 10:07:20;;;;;;;12.78;3.50;;;;;;;30.63;56.64;100626.42;1736934;82;20956;-46
2021/06/24 10:09:47;;;;;;;12.65;3.77;;;;;;;30.67;56.71;100630.44;1730807;80;20951;-44
2021/06/24 10:12:17;;;;;;;14.07;3.77;;;;;;;30.71;56.32;100630.29;1731929;80;20947;-42
2021/06/24 10:14:47;;;;;;;11.60;3.30;;;;;;;30.77;56.49;100629.44;1733657;82;21349;-43
2021/06/24 10:17:14;;;;;;;9.88;3.40;;;;;;;30.82;58.32;100626.90;1732822;80;20940;-43
2021/06/24 10:19:44;;;;;;;13.32;4.87;;;;;;;30.85;57.37;100624.78;1735455;81;21474;-46
2021/06/24 10:22:26;;;;;;;13.18;4.37;;;;;;;30.86;56.78;100627.30;1734472;82;21024;-45
2021/06/24 10:25:04;;;;;;;13.45;4.47;;;;;;;30.88;57.20;100625.70;1707689;82;20948;-42
2021/06/24 10:27:34;;;;;;;9.53;3.20;;;;;;;30.87;55.95;100629.50;1735407;81;21439;-44
2021/06/24 10:30:17;;;;;;;11.65;4.15;;;;;;;30.90;56.61;100623.59;1733591;80;20916;-42
2021/06/24 10:33:01;;;;;;;11.00;4.90;;;;;;;30.92;58.01;100621.44;1734451;82;21588;-48
2021/06/24 10:35:35;;;;;;;12.25;3.83;;;;;;;30.90;58.34;100620.30;1738996;81;21361;-43
2021/06/24 10:38:03;;;;;;;12.75;4.62;;;;;;;30.91;55.26;100612.34;1734740;82;21397;-45
2021/06/24 10:40:40;;;;;;;8.10;3.10;;;;;;;30.94;55.86;100614.64;1731280;82;21514;-43
2021/06/24 10:43:12;;;;;;;9.00;3.37;;;;;;;30.96;56.04;100615.81;1734074;82;20988;-44
2021/06/24 10:45:43;;;;;;;13.80;3.37;;;;;;;30.97;56.77;100618.86;1725958;80;21806;-44
2021/06/24 10:48:28;;;;;;;8.43;3.10;;;;;;;30.98;54.50;100610.39;1732681;81;21515;-41
2021/06/24 10:51:05;;;;;;;11.93;3.62;;;;;;;31.00;53.56;100606.89;1736491;80;20913;-42
2021/06/24 10:53:42;;;;;;;11.73;3.52;;;;;;;31.05;57.41;100607.61;1728368;81;21027;-40
2021/06/24 10:56:30;;;;;;;11.53;3.35;;;;;;;31.07;57.79;100607.38;1731695;81;20932;-44
2021/06/24 10:58:59;;;;;;;8.58;3.22;;;;;;;31.08;53.47;100598.91;1732886;82;20972;-41
2021/06/24 11:01:45;;;;;;;11.48;3.98;;;;;;;31.16;52.77;100600.01;1733764;81;20956;-41
2021/06/24 11:04:29;;;;;;;10.45;3.00;;;;;;;31.21;56.86;100590.55;1738665;80;21015;-42
2021/06/24 11:06:58;;;;;;;12.85;4.22;;;;;;;31.25;56.79;100598.69;1734476;82;21003;-46
2021/06/24 11:09:25;;;;;;;15.25;3.83;;;;;;;31.29;57.40;100589.97;1743419;81;21047;-43
2021/06/24 11:11:51;;;;;;;12.82;4.60;;;;;;;31.34;56.18;100594.27;1740557;80;20936;-45
2021/06/24 11:14:40;;;;;;;12.90;3.95;;;;;;;31.37;57.00;100589.14;1734355;82;21020;-45
2021/06/24 11:17:45;;;;;;;16.12;6.25;;;;;;;31.40;57.03;100590.64;1658174;85;21475;-41
2021/06/24 11:20:17;;;;;;;9.05;3.75;;;;;;;31.43;57.35;100580.03;1668114;84;21012;-41
2021/06/24 11:22:47;;;;;;;10.45;3.55;;;;;;;31.48;57.62;100584.34;1668093;85;21507;-42